SASO2: Little River At Sasakwa, OK

Data processed at Fri Aug 18 2017 20:41


All information presented herein is the property of the government of the United States of America and may be revised or deleted at any time without prior notice.
Dissemination of this information without the expressed written consent of the Public Affairs Office, Tulsa District U.S. Army Corps of Engineers is strictly prohibited.
These data are gathered electronically and, as presented, have not undergone any form of quality control. These data are not guaranteed to be valid or correct.
Go to home page.
Go to station list.

Upstream stations:

Downstream station:
Previous Day
Next Day
Current Day
    
SHEF ID:       SASO2     Little River near Sasakwa, OK
STATION TYPE:  

                STAGE  RIV-FLOW  BAT-LOAD
                   ft       cfs      volt
              Ccp-Rev   Ccp-Rev   Ccp-Rev
(US/Central)
08/18 00:00      7.72      1122     12.65
08/18 01:00      7.72      1122     12.65
08/18 02:00      7.69      1111     12.65
08/18 03:00      7.67      1103     12.65
08/18 04:00      7.60      1077     12.57
08/18 05:00      7.51      1043     12.57
08/18 06:00      7.45      1021     12.57
08/18 07:00      7.37       992     12.57
08/18 08:00      7.27       956     12.57
08/18 09:00      7.17       921     12.65
08/18 10:00      7.05       880     12.65
08/18 11:00      6.95       847     12.65
08/18 12:00      6.82       804     12.73
08/18 13:00      6.71       768     13.84
08/18 14:00      6.59       731     14.00
08/18 15:00      6.48       697     14.00
08/18 16:00      6.37       663     13.92
08/18 17:00      6.24       624     13.68
08/18 18:00      6.14       595     13.68
08/18 19:00      6.05       570     13.53
08/18 20:00      5.94       539     13.05
08/18 21:00      ----      ----      ----
08/18 22:00      ----      ----      ----
08/18 23:00      ----      ----      ----